createdAt,value
2022-11-25T00:01:31.802Z,7.40
2022-11-25T00:04:00.608Z,7.07
2022-11-25T00:06:30.620Z,6.80
2022-11-25T00:09:03.642Z,6.77
2022-11-25T00:11:32.550Z,7.10
2022-11-25T00:14:00.907Z,5.73
2022-11-25T00:16:29.261Z,4.93
2022-11-25T00:19:00.328Z,5.40
2022-11-25T00:21:34.218Z,5.30
2022-11-25T00:24:09.480Z,4.90
2022-11-25T00:26:38.407Z,4.93
2022-11-25T00:29:09.210Z,4.70
2022-11-25T00:31:39.431Z,4.60
2022-11-25T00:34:08.437Z,4.70
2022-11-25T00:36:38.703Z,4.00
2022-11-25T00:39:11.466Z,3.70
2022-11-25T00:41:57.755Z,3.50
2022-11-25T00:44:40.204Z,3.70
2022-11-25T00:47:10.773Z,3.30
2022-11-25T00:49:40.759Z,3.60
2022-11-25T00:52:10.442Z,3.40
2022-11-25T00:54:40.145Z,3.00
2022-11-25T00:57:08.408Z,3.17
2022-11-25T00:59:37.736Z,3.17
2022-11-25T01:02:06.504Z,3.03
2022-11-25T01:04:35.664Z,3.30
2022-11-25T01:07:04.366Z,3.10
2022-11-25T01:09:32.763Z,3.13
2022-11-25T01:12:02.621Z,3.33
2022-11-25T01:14:32.899Z,3.20
2022-11-25T01:17:01.596Z,2.90
2022-11-25T01:19:30.025Z,2.93
2022-11-25T01:22:01.212Z,3.27
2022-11-25T01:24:29.501Z,3.00
2022-11-25T01:26:57.724Z,3.40
2022-11-25T01:29:27.352Z,3.03
2022-11-25T01:31:56.555Z,3.00
2022-11-25T01:34:27.228Z,3.47
2022-11-25T01:36:58.638Z,3.53
2022-11-25T01:39:32.556Z,3.20
2022-11-25T01:42:03.269Z,3.50
2022-11-25T01:44:34.418Z,3.30
2022-11-25T01:47:13.524Z,3.03
2022-11-25T01:49:45.809Z,2.90
2022-11-25T01:52:21.011Z,2.77
2022-11-25T01:54:54.091Z,3.20
2022-11-25T01:57:28.981Z,2.53
2022-11-25T02:00:02.874Z,2.60
2022-11-25T02:02:34.538Z,2.80
2022-11-25T02:05:07.929Z,3.10
2022-11-25T02:07:39.055Z,2.73
2022-11-25T02:10:11.818Z,2.83
2022-11-25T02:12:46.716Z,3.03
2022-11-25T02:15:17.631Z,2.77
2022-11-25T02:17:46.872Z,3.07
2022-11-25T02:20:17.358Z,2.90
2022-11-25T02:22:58.322Z,3.27
2022-11-25T02:25:30.941Z,2.97
2022-11-25T02:28:02.765Z,3.60
2022-11-25T02:30:31.204Z,4.00
2022-11-25T02:33:01.749Z,3.53
2022-11-25T02:35:33.512Z,3.33
2022-11-25T02:38:06.885Z,3.30
2022-11-25T02:40:41.822Z,3.00
2022-11-25T02:43:11.019Z,3.13
2022-11-25T02:45:51.862Z,3.10
2022-11-25T02:48:34.505Z,2.63
2022-11-25T02:51:13.967Z,2.73
2022-11-25T02:53:43.173Z,2.53
2022-11-25T02:56:15.371Z,3.10
2022-11-25T02:58:45.042Z,2.20
2022-11-25T03:01:14.868Z,2.33
2022-11-25T03:03:43.644Z,2.00
2022-11-25T03:06:12.123Z,2.20
2022-11-25T03:08:40.447Z,2.53
2022-11-25T03:11:13.199Z,2.50
2022-11-25T03:13:42.920Z,2.80
2022-11-25T03:16:11.541Z,2.73
2022-11-25T03:18:39.898Z,2.83
2022-11-25T03:21:08.399Z,2.47
2022-11-25T03:23:36.723Z,1.93
2022-11-25T03:26:07.435Z,2.33
2022-11-25T03:28:38.239Z,2.20
2022-11-25T03:31:11.672Z,2.20
2022-11-25T03:33:43.605Z,2.57
2022-11-25T03:36:13.290Z,2.37
2022-11-25T03:38:41.792Z,2.10
2022-11-25T03:41:10.144Z,2.20
2022-11-25T03:43:40.773Z,2.30
2022-11-25T03:46:10.128Z,3.07
2022-11-25T03:48:39.073Z,2.97
2022-11-25T03:51:08.893Z,2.67
2022-11-25T03:53:37.833Z,2.50
2022-11-25T03:56:09.838Z,2.40
2022-11-25T03:58:38.448Z,2.47
2022-11-25T04:01:09.307Z,2.20
2022-11-25T04:03:37.640Z,2.40
2022-11-25T04:06:06.186Z,2.27
2022-11-25T04:08:34.694Z,2.30
2022-11-25T04:11:03.173Z,2.33
2022-11-25T04:13:34.565Z,2.17
2022-11-25T04:16:04.737Z,2.40
2022-11-25T04:18:34.455Z,2.03
2022-11-25T04:21:03.807Z,2.43
2022-11-25T04:23:32.984Z,2.20
2022-11-25T04:26:05.156Z,2.10
2022-11-25T04:28:40.699Z,2.67
2022-11-25T04:31:09.924Z,2.37
2022-11-25T04:33:47.114Z,2.20
2022-11-25T04:36:18.163Z,2.67
2022-11-25T04:38:46.412Z,2.40
2022-11-25T04:41:14.727Z,2.40
2022-11-25T04:43:45.931Z,2.20
2022-11-25T04:46:17.874Z,2.27
2022-11-25T04:48:51.614Z,2.20
2022-11-25T04:51:21.131Z,2.10
2022-11-25T04:53:53.258Z,2.00
2022-11-25T04:56:25.212Z,2.10
2022-11-25T04:59:12.386Z,2.50
2022-11-25T05:01:47.507Z,1.80
2022-11-25T05:04:38.148Z,1.90
2022-11-25T05:07:06.756Z,1.90
2022-11-25T05:09:35.329Z,1.93
2022-11-25T05:12:27.287Z,2.47
2022-11-25T05:14:56.718Z,2.53
2022-11-25T05:17:27.131Z,2.30
2022-11-25T05:19:57.662Z,4.50
2022-11-25T05:22:28.252Z,7.43
2022-11-25T05:24:57.589Z,7.40
2022-11-25T05:27:26.795Z,5.00
2022-11-25T05:29:56.861Z,4.80
2022-11-25T05:32:26.316Z,4.40
2022-11-25T05:34:58.621Z,3.60
2022-11-25T05:37:26.877Z,3.80
2022-11-25T05:40:01.817Z,3.90
2022-11-25T05:43:02.006Z,3.70
2022-11-25T05:45:31.934Z,3.90
2022-11-25T05:48:00.668Z,4.10
2022-11-25T05:50:31.510Z,3.90
2022-11-25T05:53:13.375Z,3.83
2022-11-25T05:55:42.707Z,4.07
2022-11-25T05:58:19.403Z,3.93
2022-11-25T06:00:53.436Z,5.87
2022-11-25T06:03:24.569Z,4.47
2022-11-25T06:05:56.439Z,3.60
2022-11-25T06:08:24.827Z,3.77
2022-11-25T06:10:56.738Z,3.57
2022-11-25T06:13:28.655Z,4.40
2022-11-25T06:15:57.750Z,4.20
2022-11-25T06:18:26.220Z,4.47
2022-11-25T06:21:01.273Z,4.00
2022-11-25T06:23:30.067Z,3.87
2022-11-25T06:26:05.060Z,4.27
2022-11-25T06:28:34.348Z,4.27
2022-11-25T06:31:07.827Z,4.20
2022-11-25T06:33:43.596Z,3.90
2022-11-25T06:36:17.245Z,3.97
2022-11-25T06:38:46.152Z,3.50
2022-11-25T06:41:15.045Z,3.40
2022-11-25T06:43:43.427Z,3.70
2022-11-25T06:46:17.451Z,3.70
2022-11-25T06:48:49.558Z,3.37
2022-11-25T06:51:19.517Z,3.17
2022-11-25T06:53:47.943Z,3.30
2022-11-25T06:56:19.564Z,4.50
2022-11-25T06:58:49.421Z,3.27
2022-11-25T07:01:19.419Z,3.43
2022-11-25T07:03:49.638Z,3.50
2022-11-25T07:06:20.282Z,4.03
2022-11-25T07:08:51.071Z,3.17
2022-11-25T07:11:22.598Z,4.30
2022-11-25T07:13:54.101Z,3.90
2022-11-25T07:16:22.710Z,4.80
2022-11-25T07:18:51.854Z,4.63
2022-11-25T07:21:26.172Z,4.73
2022-11-25T07:23:54.465Z,5.20
2022-11-25T07:26:25.903Z,5.23
2022-11-25T07:28:56.737Z,6.03
2022-11-25T07:31:31.537Z,4.70
2022-11-25T07:34:05.500Z,5.47
2022-11-25T07:36:36.382Z,5.13
2022-11-25T07:39:07.864Z,5.63
2022-11-25T07:41:37.042Z,6.07
2022-11-25T07:44:09.381Z,5.67
2022-11-25T07:46:52.979Z,5.20
2022-11-25T07:49:25.515Z,4.70
2022-11-25T07:51:59.724Z,5.40
2022-11-25T07:54:28.305Z,6.00
2022-11-25T07:56:57.428Z,5.77
2022-11-25T07:59:26.132Z,5.90
2022-11-25T08:01:56.689Z,6.13
2022-11-25T08:04:25.764Z,5.70
2022-11-25T08:06:55.597Z,5.50
2022-11-25T08:09:25.637Z,5.20
2022-11-25T08:11:54.074Z,4.90
2022-11-25T08:14:23.503Z,6.10
2022-11-25T08:16:51.815Z,5.47
2022-11-25T08:19:21.283Z,5.20
2022-11-25T08:21:49.816Z,4.70
2022-11-25T08:24:21.368Z,5.10
2022-11-25T08:26:50.752Z,5.80
2022-11-25T08:29:20.318Z,4.70
2022-11-25T08:31:48.787Z,5.70
2022-11-25T08:34:20.804Z,5.83
2022-11-25T08:36:51.905Z,5.70
2022-11-25T08:39:54.171Z,5.10
2022-11-25T08:42:13.288Z,4.97
2022-11-25T08:44:42.224Z,5.13
2022-11-25T08:47:11.318Z,4.87
2022-11-25T08:49:41.614Z,5.10
2022-11-25T08:52:11.714Z,4.73
2022-11-25T08:54:42.590Z,4.80
2022-11-25T08:57:11.826Z,5.10
2022-11-25T08:59:40.772Z,5.37
2022-11-25T09:02:11.159Z,4.97
2022-11-25T09:04:40.437Z,4.20
2022-11-25T09:07:09.185Z,4.93
2022-11-25T09:09:37.833Z,4.83
2022-11-25T09:12:07.920Z,4.53
2022-11-25T09:14:36.412Z,5.10
2022-11-25T09:17:09.990Z,5.30
2022-11-25T09:19:38.662Z,5.77
2022-11-25T09:22:08.063Z,8.37
2022-11-25T09:24:36.680Z,7.20
2022-11-25T09:27:05.121Z,7.00
2022-11-25T09:29:35.280Z,6.77
2022-11-25T09:32:04.079Z,6.30
2022-11-25T09:34:32.491Z,6.50
2022-11-25T09:37:01.858Z,5.93
2022-11-25T09:39:30.991Z,7.03
2022-11-25T09:42:32.400Z,6.43
2022-11-25T09:45:31.770Z,6.73
2022-11-25T09:48:11.881Z,5.50
2022-11-25T09:50:52.570Z,5.00
2022-11-25T09:53:32.958Z,6.37
2022-11-25T09:56:04.888Z,7.87
2022-11-25T09:58:36.801Z,6.70
2022-11-25T10:01:13.768Z,7.57
2022-11-25T10:03:46.543Z,7.77
2022-11-25T10:06:18.909Z,5.40
2022-11-25T10:08:50.898Z,7.17
2022-11-25T10:11:29.363Z,8.27
2022-11-25T10:14:02.208Z,10.23
2022-11-25T10:16:41.164Z,9.40
2022-11-25T10:19:18.547Z,8.07
2022-11-25T10:21:47.613Z,8.03
2022-11-25T10:24:19.298Z,8.47
2022-11-25T10:26:52.343Z,8.20
2022-11-25T10:29:31.353Z,9.63
2022-11-25T10:32:20.718Z,12.40
2022-11-25T10:34:52.833Z,7.30
2022-11-25T10:37:30.393Z,6.27
2022-11-25T10:39:58.823Z,6.23
2022-11-25T10:42:29.007Z,7.87
2022-11-25T10:44:59.399Z,7.37
2022-11-25T10:47:36.290Z,9.13
2022-11-25T10:50:26.471Z,9.50
2022-11-25T10:53:00.924Z,9.50
2022-11-25T10:55:31.650Z,8.77
2022-11-25T10:58:00.819Z,9.87
2022-11-25T11:00:33.296Z,9.10
2022-11-25T11:03:15.054Z,7.80
2022-11-25T11:05:49.867Z,9.83
2022-11-25T11:08:21.005Z,8.40
2022-11-25T11:11:07.689Z,8.03
2022-11-25T11:13:35.959Z,6.57
2022-11-25T11:16:04.737Z,6.53
2022-11-25T11:18:42.822Z,6.00
2022-11-25T11:21:30.842Z,5.30
2022-11-25T11:24:00.780Z,6.17
2022-11-25T11:26:30.632Z,7.20
2022-11-25T11:29:02.002Z,7.27
2022-11-25T11:31:35.201Z,8.67
2022-11-25T11:34:47.264Z,10.70
2022-11-25T11:37:32.879Z,9.10
2022-11-25T11:40:19.445Z,6.43
2022-11-25T11:43:00.090Z,7.13
2022-11-25T11:45:52.518Z,4.50
2022-11-25T11:48:28.545Z,4.20
2022-11-25T11:51:08.912Z,4.63
2022-11-25T11:53:44.086Z,5.17
2022-11-25T11:56:34.687Z,5.20
2022-11-25T11:59:32.357Z,6.23
2022-11-25T12:02:16.449Z,5.27
2022-11-25T12:04:51.090Z,5.63
2022-11-25T12:07:27.826Z,6.63
2022-11-25T12:10:00.576Z,7.37
2022-11-25T12:12:36.762Z,7.10
2022-11-25T12:15:13.189Z,6.83
2022-11-25T12:17:46.342Z,9.73
2022-11-25T12:20:23.285Z,6.23
2022-11-25T12:22:59.454Z,6.13
2022-11-25T12:25:35.227Z,4.60
2022-11-25T12:28:09.223Z,4.20
2022-11-25T12:30:42.030Z,4.40
2022-11-25T12:33:17.739Z,4.60
2022-11-25T12:35:57.290Z,6.20
2022-11-25T12:38:34.537Z,5.73
2022-11-25T12:41:14.903Z,7.33
2022-11-25T12:43:48.515Z,5.73
2022-11-25T12:46:25.626Z,6.23
2022-11-25T12:48:55.997Z,5.20
2022-11-25T12:51:51.221Z,5.90
2022-11-25T12:54:37.404Z,4.90
2022-11-25T12:57:27.459Z,5.77
2022-11-25T13:00:33.301Z,4.63
2022-11-25T13:03:31.147Z,4.57
2022-11-25T13:06:20.610Z,3.87
2022-11-25T13:08:58.064Z,4.07
2022-11-25T13:11:48.267Z,3.88
2022-11-25T13:14:26.154Z,3.45
2022-11-25T13:16:57.385Z,4.10
2022-11-25T13:19:28.790Z,4.00
2022-11-25T13:22:01.433Z,3.97
2022-11-25T13:24:32.917Z,3.40
2022-11-25T13:27:02.652Z,3.43
2022-11-25T13:30:05.096Z,3.60
2022-11-25T13:32:46.074Z,3.30
2022-11-25T13:35:51.722Z,2.80
2022-11-25T13:39:01.939Z,3.60
2022-11-25T13:41:45.286Z,3.00
2022-11-25T13:44:22.218Z,3.10
2022-11-25T13:46:52.879Z,2.75
2022-11-25T13:49:32.300Z,3.17
2022-11-25T13:52:03.700Z,3.10
2022-11-25T13:54:36.768Z,3.08
2022-11-25T13:57:27.131Z,3.35
2022-11-25T14:00:01.769Z,3.20
2022-11-25T14:02:49.681Z,3.25
2022-11-25T14:05:54.417Z,3.10
2022-11-25T14:08:30.714Z,3.37
2022-11-25T14:11:32.418Z,3.37
2022-11-25T14:14:23.803Z,3.50
2022-11-25T14:17:11.705Z,3.63
2022-11-25T14:20:00.591Z,7.87
2022-11-25T14:22:48.400Z,10.20
2022-11-25T14:25:22.185Z,5.60
2022-11-25T14:28:02.405Z,5.10
2022-11-25T14:30:33.440Z,10.57
2022-11-25T14:33:05.404Z,10.47
2022-11-25T14:35:44.840Z,8.47
2022-11-25T14:38:18.704Z,4.03
2022-11-25T14:40:54.734Z,6.40
2022-11-25T14:43:27.116Z,7.80
2022-11-25T14:46:12.415Z,7.50
2022-11-25T14:48:43.635Z,6.37
2022-11-25T14:51:14.811Z,6.47
2022-11-25T14:53:48.564Z,12.70
2022-11-25T14:56:22.416Z,8.87
2022-11-25T14:58:53.433Z,5.73
2022-11-25T15:01:23.220Z,5.60
2022-11-25T15:04:02.666Z,6.00
2022-11-25T15:06:35.475Z,6.57
2022-11-25T15:09:05.771Z,8.17
2022-11-25T15:11:36.372Z,8.83
2022-11-25T15:14:07.081Z,10.57
2022-11-25T15:16:39.454Z,7.70
2022-11-25T15:19:18.286Z,6.00
2022-11-25T15:22:21.234Z,6.00
2022-11-25T15:24:43.596Z,5.57
2022-11-25T15:27:16.460Z,5.60
2022-11-25T15:29:46.586Z,5.43
2022-11-25T15:32:19.346Z,5.47
2022-11-25T15:34:50.641Z,5.20
2022-11-25T15:37:19.351Z,5.50
2022-11-25T15:39:48.355Z,5.87
2022-11-25T15:42:20.435Z,6.80
2022-11-25T15:44:52.747Z,8.20
2022-11-25T15:47:25.532Z,9.40
2022-11-25T15:50:01.376Z,6.50
2022-11-25T15:52:33.978Z,5.77
2022-11-25T15:55:04.874Z,6.03
2022-11-25T15:57:36.873Z,5.47
2022-11-25T16:00:17.508Z,5.60
2022-11-25T16:02:57.619Z,4.87
2022-11-25T16:05:38.736Z,5.50
2022-11-25T16:08:29.138Z,6.00
2022-11-25T16:11:01.573Z,5.43
2022-11-25T16:13:35.538Z,5.93
2022-11-25T16:16:13.081Z,6.20
2022-11-25T16:18:46.204Z,6.37
2022-11-25T16:21:19.162Z,5.93
2022-11-25T16:23:50.297Z,6.50
2022-11-25T16:26:23.606Z,7.30
2022-11-25T16:28:54.860Z,7.90
2022-11-25T16:31:24.422Z,7.57
2022-11-25T16:33:55.881Z,7.80
2022-11-25T16:36:25.631Z,8.10
2022-11-25T16:38:55.153Z,7.33
2022-11-25T16:41:25.877Z,8.33
2022-11-25T16:43:58.369Z,8.33
2022-11-25T16:46:28.576Z,8.20
2022-11-25T16:48:57.098Z,9.67
2022-11-25T16:51:29.243Z,9.73
2022-11-25T16:53:57.742Z,9.93
2022-11-25T16:56:29.484Z,9.27
2022-11-25T16:58:59.820Z,9.00
2022-11-25T17:01:29.462Z,8.80
2022-11-25T17:03:57.941Z,8.90
2022-11-25T17:06:30.102Z,8.77
2022-11-25T17:08:59.817Z,8.20
2022-11-25T17:11:31.186Z,10.30
2022-11-25T17:14:02.214Z,11.03
2022-11-25T17:16:31.665Z,11.93
2022-11-25T17:19:01.308Z,13.97
2022-11-25T17:21:31.154Z,15.80
2022-11-25T17:24:03.058Z,16.00
2022-11-25T17:26:38.100Z,24.13
2022-11-25T17:29:09.850Z,25.30
2022-11-25T17:31:39.793Z,28.97
2022-11-25T17:34:08.672Z,23.93
2022-11-25T17:36:38.567Z,21.00
2022-11-25T17:39:06.961Z,18.50
2022-11-25T17:41:39.779Z,18.47
2022-11-25T17:44:17.392Z,16.77
2022-11-25T17:46:46.124Z,13.53
2022-11-25T17:49:17.007Z,11.07
2022-11-25T17:51:46.780Z,11.80
2022-11-25T17:54:15.657Z,11.00
2022-11-25T17:56:50.691Z,10.30
2022-11-25T17:59:26.312Z,10.20
2022-11-25T18:01:56.230Z,9.83
2022-11-25T18:04:27.660Z,9.07
2022-11-25T18:06:57.847Z,10.60
2022-11-25T18:09:26.298Z,13.67
2022-11-25T18:11:57.635Z,12.67
2022-11-25T18:14:28.266Z,9.43
2022-11-25T18:16:57.305Z,11.40
2022-11-25T18:19:25.702Z,11.90
2022-11-25T18:21:55.691Z,14.10
2022-11-25T18:24:25.625Z,9.27
2022-11-25T18:26:54.386Z,11.20
2022-11-25T18:29:26.974Z,9.17
2022-11-25T18:31:59.686Z,9.83
2022-11-25T18:34:28.181Z,12.03
2022-11-25T18:36:56.700Z,11.17
2022-11-25T18:39:26.995Z,15.40
2022-11-25T18:41:58.496Z,12.60
2022-11-25T18:44:29.350Z,15.30
2022-11-25T18:46:57.965Z,15.53
2022-11-25T18:49:26.498Z,14.60
2022-11-25T18:51:54.926Z,10.13
2022-11-25T18:54:23.138Z,15.40
2022-11-25T18:56:53.170Z,15.90
2022-11-25T18:59:29.506Z,9.97
2022-11-25T19:01:58.411Z,9.20
2022-11-25T19:04:26.974Z,9.20
2022-11-25T19:06:55.615Z,11.23
2022-11-25T19:09:24.257Z,10.60
2022-11-25T19:11:55.925Z,10.60
2022-11-25T19:14:30.328Z,11.50
2022-11-25T19:17:02.834Z,14.43
2022-11-25T19:19:31.956Z,17.00
2022-11-25T19:22:02.567Z,16.13
2022-11-25T19:24:31.189Z,15.60
2022-11-25T19:27:00.856Z,16.50
2022-11-25T19:29:37.523Z,15.10
2022-11-25T19:32:18.519Z,15.57
2022-11-25T19:34:49.601Z,21.77
2022-11-25T19:37:20.417Z,19.70
2022-11-25T19:39:51.832Z,18.17
2022-11-25T19:42:25.043Z,18.17
2022-11-25T19:44:53.832Z,17.73
2022-11-25T19:47:23.973Z,17.47
2022-11-25T19:49:55.648Z,16.83
2022-11-25T19:52:34.871Z,16.27
2022-11-25T19:55:03.710Z,15.63
2022-11-25T19:57:33.628Z,15.27
2022-11-25T20:00:03.353Z,14.40
2022-11-25T20:02:37.382Z,15.10
2022-11-25T20:05:07.771Z,14.73
2022-11-25T20:07:37.752Z,14.67
2022-11-25T20:10:16.794Z,14.43
2022-11-25T20:12:47.022Z,14.73
2022-11-25T20:15:15.586Z,15.00
2022-11-25T20:17:46.984Z,14.60
2022-11-25T20:20:17.676Z,14.20
2022-11-25T20:22:54.681Z,14.03
2022-11-25T20:25:23.820Z,14.73
2022-11-25T20:27:53.858Z,14.90
2022-11-25T20:30:24.053Z,14.67
2022-11-25T20:32:53.652Z,14.10
2022-11-25T20:35:22.884Z,13.27
2022-11-25T20:38:00.389Z,13.67
2022-11-25T20:40:36.309Z,11.83
2022-11-25T20:43:06.682Z,11.60
2022-11-25T20:45:35.464Z,11.20
2022-11-25T20:48:04.237Z,12.63
2022-11-25T20:50:33.021Z,11.90
2022-11-25T20:53:01.544Z,13.07
2022-11-25T20:55:29.918Z,11.10
2022-11-25T20:57:58.277Z,10.60
2022-11-25T21:00:29.669Z,12.77
2022-11-25T21:02:58.181Z,14.70
2022-11-25T21:05:28.406Z,17.37
2022-11-25T21:07:58.008Z,16.57
2022-11-25T21:10:30.209Z,14.70
2022-11-25T21:12:58.834Z,13.67
2022-11-25T21:15:29.682Z,12.80
2022-11-25T21:17:59.611Z,12.33
2022-11-25T21:20:28.149Z,12.20
2022-11-25T21:23:00.539Z,11.47
2022-11-25T21:25:28.899Z,12.10
2022-11-25T21:27:57.371Z,11.07
2022-11-25T21:30:30.819Z,11.77
2022-11-25T21:33:01.288Z,12.37
2022-11-25T21:35:33.094Z,11.43
2022-11-25T21:38:04.627Z,12.70
2022-11-25T21:40:38.848Z,11.53
2022-11-25T21:43:19.828Z,12.20
2022-11-25T21:45:56.499Z,14.80
2022-11-25T21:48:26.404Z,13.10
2022-11-25T21:50:55.483Z,12.43
2022-11-25T21:53:24.505Z,11.43
2022-11-25T21:55:53.375Z,13.17
2022-11-25T21:58:27.077Z,13.73
2022-11-25T22:00:58.747Z,14.17
2022-11-25T22:03:29.642Z,13.93
2022-11-25T22:05:58.130Z,15.17
2022-11-25T22:08:27.699Z,13.90
2022-11-25T22:10:57.056Z,12.03
2022-11-25T22:13:30.990Z,10.83
2022-11-25T22:16:02.470Z,10.83
2022-11-25T22:18:33.773Z,10.60
2022-11-25T22:21:03.277Z,10.23
2022-11-25T22:23:31.743Z,10.07
2022-11-25T22:26:00.463Z,10.47
2022-11-25T22:28:30.813Z,10.93
2022-11-25T22:31:03.500Z,12.90
2022-11-25T22:33:33.862Z,12.20
2022-11-25T22:36:02.802Z,12.73
2022-11-25T22:38:31.629Z,10.90
2022-11-25T22:41:02.384Z,13.03
2022-11-25T22:43:34.596Z,12.20
2022-11-25T22:46:05.847Z,11.70
2022-11-25T22:48:36.711Z,18.60
2022-11-25T22:51:05.754Z,22.33
2022-11-25T22:53:34.062Z,12.73
2022-11-25T22:56:02.364Z,11.37
2022-11-25T22:58:30.914Z,11.00
2022-11-25T23:00:59.313Z,11.27
2022-11-25T23:03:30.716Z,11.37
2022-11-25T23:05:59.056Z,11.40
2022-11-25T23:08:31.521Z,12.00
2022-11-25T23:11:00.579Z,11.67
2022-11-25T23:13:28.922Z,11.27
2022-11-25T23:15:59.540Z,11.57
2022-11-25T23:18:37.973Z,12.17
2022-11-25T23:21:07.892Z,10.13
2022-11-25T23:23:36.201Z,10.70
2022-11-25T23:26:04.694Z,10.53
2022-11-25T23:28:33.047Z,10.13
2022-11-25T23:31:02.947Z,11.10
2022-11-25T23:33:38.152Z,11.40
2022-11-25T23:36:09.789Z,11.03
2022-11-25T23:38:43.145Z,12.17
2022-11-25T23:41:15.354Z,14.27
2022-11-25T23:43:43.943Z,12.50
2022-11-25T23:46:15.591Z,10.13
2022-11-25T23:48:49.011Z,9.83
2022-11-25T23:51:17.455Z,10.83
2022-11-25T23:53:46.092Z,11.80
2022-11-25T23:56:14.380Z,10.30
2022-11-25T23:58:42.991Z,9.87
